sensor_id;sensor_type;location;lat;lon;timestamp;temperature;humidity
44767;DHT22;30487;48.716;9.272;2023-11-22T00:00:10;8.60;99.90
44767;DHT22;30487;48.716;9.272;2023-11-22T00:02:37;8.60;99.90
44767;DHT22;30487;48.716;9.272;2023-11-22T00:05:03;8.60;99.90
44767;DHT22;30487;48.716;9.272;2023-11-22T00:07:33;8.60;99.90
44767;DHT22;30487;48.716;9.272;2023-11-22T00:09:59;8.60;99.90
44767;DHT22;30487;48.716;9.272;2023-11-22T00:12:26;8.60;99.90
44767;DHT22;30487;48.716;9.272;2023-11-22T00:14:53;8.60;99.90
44767;DHT22;30487;48.716;9.272;2023-11-22T00:17:19;8.60;99.90
44767;DHT22;30487;48.716;9.272;2023-11-22T00:19:45;8.60;99.90
44767;DHT22;30487;48.716;9.272;2023-11-22T00:22:11;8.60;99.90
44767;DHT22;30487;48.716;9.272;2023-11-22T00:24:39;8.60;99.90
44767;DHT22;30487;48.716;9.272;2023-11-22T00:27:05;8.60;99.90
44767;DHT22;30487;48.716;9.272;2023-11-22T00:29:31;8.60;99.90
44767;DHT22;30487;48.716;9.272;2023-11-22T00:31:57;8.60;99.90
44767;DHT22;30487;48.716;9.272;2023-11-22T00:34:23;8.50;99.90
44767;DHT22;30487;48.716;9.272;2023-11-22T00:36:48;8.50;99.90
44767;DHT22;30487;48.716;9.272;2023-11-22T00:39:15;8.50;99.90
44767;DHT22;30487;48.716;9.272;2023-11-22T00:41:41;8.50;99.90
44767;DHT22;30487;48.716;9.272;2023-11-22T00:44:07;8.50;99.90
44767;DHT22;30487;48.716;9.272;2023-11-22T00:46:32;8.40;99.90
44767;DHT22;30487;48.716;9.272;2023-11-22T00:48:58;8.40;99.90
44767;DHT22;30487;48.716;9.272;2023-11-22T00:51:24;8.40;99.90
44767;DHT22;30487;48.716;9.272;2023-11-22T00:53:49;8.30;99.90
44767;DHT22;30487;48.716;9.272;2023-11-22T00:56:16;8.30;99.90
44767;DHT22;30487;48.716;9.272;2023-11-22T00:58:42;8.30;99.90
44767;DHT22;30487;48.716;9.272;2023-11-22T01:01:08;8.30;99.90
44767;DHT22;30487;48.716;9.272;2023-11-22T01:03:34;8.30;99.90
44767;DHT22;30487;48.716;9.272;2023-11-22T01:06:00;8.30;99.90
44767;DHT22;30487;48.716;9.272;2023-11-22T01:08:26;8.20;99.90
44767;DHT22;30487;48.716;9.272;2023-11-22T01:10:51;8.10;99.90
44767;DHT22;30487;48.716;9.272;2023-11-22T01:13:17;8.10;99.90
44767;DHT22;30487;48.716;9.272;2023-11-22T01:15:43;8.00;99.90
44767;DHT22;30487;48.716;9.272;2023-11-22T01:18:10;8.00;99.90
44767;DHT22;30487;48.716;9.272;2023-11-22T01:20:35;7.90;99.90
44767;DHT22;30487;48.716;9.272;2023-11-22T01:23:01;7.90;99.90
44767;DHT22;30487;48.716;9.272;2023-11-22T01:25:27;7.80;99.90
44767;DHT22;30487;48.716;9.272;2023-11-22T01:27:53;7.80;99.90
44767;DHT22;30487;48.716;9.272;2023-11-22T01:30:19;7.70;99.90
44767;DHT22;30487;48.716;9.272;2023-11-22T01:32:45;7.70;99.90
44767;DHT22;30487;48.716;9.272;2023-11-22T01:35:11;7.70;99.90
44767;DHT22;30487;48.716;9.272;2023-11-22T01:37:36;7.70;99.90
44767;DHT22;30487;48.716;9.272;2023-11-22T01:40:03;7.70;99.90
44767;DHT22;30487;48.716;9.272;2023-11-22T01:42:29;7.70;99.90
44767;DHT22;30487;48.716;9.272;2023-11-22T01:44:55;7.70;99.90
44767;DHT22;30487;48.716;9.272;2023-11-22T01:47:21;7.70;99.90
44767;DHT22;30487;48.716;9.272;2023-11-22T01:49:47;7.70;99.90
44767;DHT22;30487;48.716;9.272;2023-11-22T01:52:13;7.70;99.90
44767;DHT22;30487;48.716;9.272;2023-11-22T01:54:39;7.70;99.90
44767;DHT22;30487;48.716;9.272;2023-11-22T01:57:05;7.70;99.90
44767;DHT22;30487;48.716;9.272;2023-11-22T01:59:33;7.70;99.90
44767;DHT22;30487;48.716;9.272;2023-11-22T02:01:59;7.70;99.90
44767;DHT22;30487;48.716;9.272;2023-11-22T02:04:24;7.70;99.90
44767;DHT22;30487;48.716;9.272;2023-11-22T02:06:51;7.70;99.90
44767;DHT22;30487;48.716;9.272;2023-11-22T02:09:16;7.70;99.90
44767;DHT22;30487;48.716;9.272;2023-11-22T02:11:43;7.70;99.90
44767;DHT22;30487;48.716;9.272;2023-11-22T02:14:11;7.60;99.90
44767;DHT22;30487;48.716;9.272;2023-11-22T02:16:37;7.60;99.90
44767;DHT22;30487;48.716;9.272;2023-11-22T02:19:04;7.60;99.90
44767;DHT22;30487;48.716;9.272;2023-11-22T02:21:32;7.60;99.90
44767;DHT22;30487;48.716;9.272;2023-11-22T02:23:58;7.50;99.90
44767;DHT22;30487;48.716;9.272;2023-11-22T02:26:24;7.40;99.90
44767;DHT22;30487;48.716;9.272;2023-11-22T02:28:50;7.30;99.90
44767;DHT22;30487;48.716;9.272;2023-11-22T02:31:16;7.30;99.90
44767;DHT22;30487;48.716;9.272;2023-11-22T02:33:42;7.20;99.90
44767;DHT22;30487;48.716;9.272;2023-11-22T02:36:08;7.20;99.90
44767;DHT22;30487;48.716;9.272;2023-11-22T02:38:37;7.20;99.90
44767;DHT22;30487;48.716;9.272;2023-11-22T02:41:03;7.10;99.90
44767;DHT22;30487;48.716;9.272;2023-11-22T02:43:30;7.00;99.90
44767;DHT22;30487;48.716;9.272;2023-11-22T02:45:55;7.00;99.90
44767;DHT22;30487;48.716;9.272;2023-11-22T02:48:21;7.00;99.90
44767;DHT22;30487;48.716;9.272;2023-11-22T02:50:46;6.90;99.90
44767;DHT22;30487;48.716;9.272;2023-11-22T02:53:12;7.00;99.90
44767;DHT22;30487;48.716;9.272;2023-11-22T02:55:38;6.90;99.90
44767;DHT22;30487;48.716;9.272;2023-11-22T02:58:04;6.90;99.90
44767;DHT22;30487;48.716;9.272;2023-11-22T03:00:29;6.90;99.90
44767;DHT22;30487;48.716;9.272;2023-11-22T03:02:55;6.90;99.90
44767;DHT22;30487;48.716;9.272;2023-11-22T03:05:22;6.90;99.90
44767;DHT22;30487;48.716;9.272;2023-11-22T03:07:47;6.90;99.90
44767;DHT22;30487;48.716;9.272;2023-11-22T03:10:13;6.90;99.90
44767;DHT22;30487;48.716;9.272;2023-11-22T03:12:39;6.80;99.90
44767;DHT22;30487;48.716;9.272;2023-11-22T03:15:05;6.80;99.90
44767;DHT22;30487;48.716;9.272;2023-11-22T03:17:31;6.70;99.90
44767;DHT22;30487;48.716;9.272;2023-11-22T03:19:59;6.70;99.90
44767;DHT22;30487;48.716;9.272;2023-11-22T03:22:26;6.70;99.90
44767;DHT22;30487;48.716;9.272;2023-11-22T03:24:53;6.70;99.90
44767;DHT22;30487;48.716;9.272;2023-11-22T03:27:19;6.70;99.90
44767;DHT22;30487;48.716;9.272;2023-11-22T03:29:47;6.70;99.90
44767;DHT22;30487;48.716;9.272;2023-11-22T03:32:13;6.70;99.90
44767;DHT22;30487;48.716;9.272;2023-11-22T03:34:39;6.60;99.90
44767;DHT22;30487;48.716;9.272;2023-11-22T03:37:04;6.60;99.90
44767;DHT22;30487;48.716;9.272;2023-11-22T03:39:30;6.60;99.90
44767;DHT22;30487;48.716;9.272;2023-11-22T03:41:55;6.60;99.90
44767;DHT22;30487;48.716;9.272;2023-11-22T03:44:22;6.60;99.90
44767;DHT22;30487;48.716;9.272;2023-11-22T03:46:48;6.50;99.90
44767;DHT22;30487;48.716;9.272;2023-11-22T03:49:13;6.50;99.90
44767;DHT22;30487;48.716;9.272;2023-11-22T03:51:41;6.50;99.90
44767;DHT22;30487;48.716;9.272;2023-11-22T03:54:07;6.50;99.90
44767;DHT22;30487;48.716;9.272;2023-11-22T03:56:33;6.50;99.90
44767;DHT22;30487;48.716;9.272;2023-11-22T03:58:59;6.50;99.90
44767;DHT22;30487;48.716;9.272;2023-11-22T04:01:24;6.50;99.90
44767;DHT22;30487;48.716;9.272;2023-11-22T04:03:50;6.50;99.90
44767;DHT22;30487;48.716;9.272;2023-11-22T04:06:17;6.50;99.90
44767;DHT22;30487;48.716;9.272;2023-11-22T04:08:44;6.50;99.90
44767;DHT22;30487;48.716;9.272;2023-11-22T04:11:11;6.50;99.90
44767;DHT22;30487;48.716;9.272;2023-11-22T04:13:37;6.50;99.90
44767;DHT22;30487;48.716;9.272;2023-11-22T04:16:03;6.50;99.90
44767;DHT22;30487;48.716;9.272;2023-11-22T04:18:29;6.40;99.90
44767;DHT22;30487;48.716;9.272;2023-11-22T04:20:55;6.40;99.90
44767;DHT22;30487;48.716;9.272;2023-11-22T04:23:23;6.30;99.90
44767;DHT22;30487;48.716;9.272;2023-11-22T04:25:49;6.30;99.90
44767;DHT22;30487;48.716;9.272;2023-11-22T04:28:15;6.40;99.90
44767;DHT22;30487;48.716;9.272;2023-11-22T04:30:40;6.40;99.90
44767;DHT22;30487;48.716;9.272;2023-11-22T04:33:07;6.40;99.90
44767;DHT22;30487;48.716;9.272;2023-11-22T04:35:32;6.40;99.90
44767;DHT22;30487;48.716;9.272;2023-11-22T04:38:02;6.40;99.90
44767;DHT22;30487;48.716;9.272;2023-11-22T04:40:30;6.40;99.90
44767;DHT22;30487;48.716;9.272;2023-11-22T04:42:56;6.40;99.90
44767;DHT22;30487;48.716;9.272;2023-11-22T04:45:21;6.40;99.90
44767;DHT22;30487;48.716;9.272;2023-11-22T04:47:47;6.40;99.90
44767;DHT22;30487;48.716;9.272;2023-11-22T04:50:12;6.40;99.90
44767;DHT22;30487;48.716;9.272;2023-11-22T04:52:38;6.40;99.90
44767;DHT22;30487;48.716;9.272;2023-11-22T04:55:05;6.30;99.90
44767;DHT22;30487;48.716;9.272;2023-11-22T04:57:30;6.30;99.90
44767;DHT22;30487;48.716;9.272;2023-11-22T04:59:56;6.30;99.90
44767;DHT22;30487;48.716;9.272;2023-11-22T05:02:22;6.30;99.90
44767;DHT22;30487;48.716;9.272;2023-11-22T05:04:48;6.30;99.90
44767;DHT22;30487;48.716;9.272;2023-11-22T05:07:15;6.30;99.90
44767;DHT22;30487;48.716;9.272;2023-11-22T05:09:41;6.30;99.90
44767;DHT22;30487;48.716;9.272;2023-11-22T05:12:09;6.30;99.90
44767;DHT22;30487;48.716;9.272;2023-11-22T05:14:34;6.30;99.90
44767;DHT22;30487;48.716;9.272;2023-11-22T05:17:00;6.30;99.90
44767;DHT22;30487;48.716;9.272;2023-11-22T05:19:25;6.30;99.90
44767;DHT22;30487;48.716;9.272;2023-11-22T05:21:51;6.30;99.90
44767;DHT22;30487;48.716;9.272;2023-11-22T05:24:17;6.30;99.90
44767;DHT22;30487;48.716;9.272;2023-11-22T05:26:42;6.30;99.90
44767;DHT22;30487;48.716;9.272;2023-11-22T05:29:08;6.20;99.90
44767;DHT22;30487;48.716;9.272;2023-11-22T05:31:33;6.20;99.90
44767;DHT22;30487;48.716;9.272;2023-11-22T05:33:59;6.20;99.90
44767;DHT22;30487;48.716;9.272;2023-11-22T05:36:24;6.20;99.90
44767;DHT22;30487;48.716;9.272;2023-11-22T05:38:50;6.20;99.90
44767;DHT22;30487;48.716;9.272;2023-11-22T05:41:15;6.20;99.90
44767;DHT22;30487;48.716;9.272;2023-11-22T05:43:41;6.20;99.90
44767;DHT22;30487;48.716;9.272;2023-11-22T05:46:08;6.20;99.90
44767;DHT22;30487;48.716;9.272;2023-11-22T05:48:33;6.20;99.90
44767;DHT22;30487;48.716;9.272;2023-11-22T05:50:59;6.20;99.90
44767;DHT22;30487;48.716;9.272;2023-11-22T05:53:25;6.10;99.90
44767;DHT22;30487;48.716;9.272;2023-11-22T05:55:51;6.10;99.90
44767;DHT22;30487;48.716;9.272;2023-11-22T05:58:18;6.10;99.90
44767;DHT22;30487;48.716;9.272;2023-11-22T06:03:10;6.10;99.90
44767;DHT22;30487;48.716;9.272;2023-11-22T06:05:36;6.10;99.90
44767;DHT22;30487;48.716;9.272;2023-11-22T06:08:01;6.10;99.90
44767;DHT22;30487;48.716;9.272;2023-11-22T06:10:27;6.10;99.90
44767;DHT22;30487;48.716;9.272;2023-11-22T06:12:53;6.10;99.90
44767;DHT22;30487;48.716;9.272;2023-11-22T06:15:18;6.10;99.90
44767;DHT22;30487;48.716;9.272;2023-11-22T06:17:46;6.00;99.90
44767;DHT22;30487;48.716;9.272;2023-11-22T06:20:12;6.10;99.90
44767;DHT22;30487;48.716;9.272;2023-11-22T06:22:38;6.10;99.90
44767;DHT22;30487;48.716;9.272;2023-11-22T06:25:08;6.10;99.90
44767;DHT22;30487;48.716;9.272;2023-11-22T06:27:33;6.10;99.90
44767;DHT22;30487;48.716;9.272;2023-11-22T06:29:59;6.10;99.90
44767;DHT22;30487;48.716;9.272;2023-11-22T06:32:24;6.10;99.90
44767;DHT22;30487;48.716;9.272;2023-11-22T06:34:50;6.10;99.90
44767;DHT22;30487;48.716;9.272;2023-11-22T06:37:16;6.10;99.90
44767;DHT22;30487;48.716;9.272;2023-11-22T06:39:42;6.10;99.90
44767;DHT22;30487;48.716;9.272;2023-11-22T06:42:08;6.10;99.90
44767;DHT22;30487;48.716;9.272;2023-11-22T06:44:34;6.10;99.90
44767;DHT22;30487;48.716;9.272;2023-11-22T06:47:00;6.00;99.90
44767;DHT22;30487;48.716;9.272;2023-11-22T06:49:25;6.10;99.90
44767;DHT22;30487;48.716;9.272;2023-11-22T06:51:51;6.10;99.90
44767;DHT22;30487;48.716;9.272;2023-11-22T06:54:21;6.10;99.90
44767;DHT22;30487;48.716;9.272;2023-11-22T06:56:46;6.10;99.90
44767;DHT22;30487;48.716;9.272;2023-11-22T06:59:12;6.10;99.90
44767;DHT22;30487;48.716;9.272;2023-11-22T07:01:38;6.10;99.90
44767;DHT22;30487;48.716;9.272;2023-11-22T07:04:05;6.10;99.90
44767;DHT22;30487;48.716;9.272;2023-11-22T07:06:32;6.10;99.90
44767;DHT22;30487;48.716;9.272;2023-11-22T07:08:58;6.10;99.90
44767;DHT22;30487;48.716;9.272;2023-11-22T07:11:25;6.10;99.90
44767;DHT22;30487;48.716;9.272;2023-11-22T07:13:51;6.10;99.90
44767;DHT22;30487;48.716;9.272;2023-11-22T07:16:17;6.10;99.90
44767;DHT22;30487;48.716;9.272;2023-11-22T07:18:44;6.10;99.90
44767;DHT22;30487;48.716;9.272;2023-11-22T07:21:10;6.10;99.90
44767;DHT22;30487;48.716;9.272;2023-11-22T07:23:37;6.10;99.90
44767;DHT22;30487;48.716;9.272;2023-11-22T07:26:03;6.10;99.90
44767;DHT22;30487;48.716;9.272;2023-11-22T07:28:29;6.10;99.90
44767;DHT22;30487;48.716;9.272;2023-11-22T07:30:56;6.10;99.90
44767;DHT22;30487;48.716;9.272;2023-11-22T07:33:22;6.10;99.90
44767;DHT22;30487;48.716;9.272;2023-11-22T07:35:51;6.10;99.90
44767;DHT22;30487;48.716;9.272;2023-11-22T07:38:17;6.10;99.90
44767;DHT22;30487;48.716;9.272;2023-11-22T07:40:42;6.00;99.90
44767;DHT22;30487;48.716;9.272;2023-11-22T07:43:08;6.00;99.90
44767;DHT22;30487;48.716;9.272;2023-11-22T07:45:34;6.10;99.90
44767;DHT22;30487;48.716;9.272;2023-11-22T07:48:00;6.00;99.90
44767;DHT22;30487;48.716;9.272;2023-11-22T07:50:26;6.00;99.90
44767;DHT22;30487;48.716;9.272;2023-11-22T07:52:52;6.00;99.90
44767;DHT22;30487;48.716;9.272;2023-11-22T07:55:18;6.00;99.90
44767;DHT22;30487;48.716;9.272;2023-11-22T07:57:48;5.90;99.90
44767;DHT22;30487;48.716;9.272;2023-11-22T08:00:14;5.90;99.90
44767;DHT22;30487;48.716;9.272;2023-11-22T08:02:45;5.80;99.90
44767;DHT22;30487;48.716;9.272;2023-11-22T08:05:11;5.80;99.90
44767;DHT22;30487;48.716;9.272;2023-11-22T08:07:38;5.80;99.90
44767;DHT22;30487;48.716;9.272;2023-11-22T08:10:09;5.70;99.90
44767;DHT22;30487;48.716;9.272;2023-11-22T08:12:37;5.80;99.90
44767;DHT22;30487;48.716;9.272;2023-11-22T08:15:03;5.70;99.90
44767;DHT22;30487;48.716;9.272;2023-11-22T08:17:29;5.70;99.90
44767;DHT22;30487;48.716;9.272;2023-11-22T08:19:58;5.70;99.90
44767;DHT22;30487;48.716;9.272;2023-11-22T08:22:24;5.70;99.90
44767;DHT22;30487;48.716;9.272;2023-11-22T08:24:52;5.70;99.90
44767;DHT22;30487;48.716;9.272;2023-11-22T08:27:19;5.70;99.90
44767;DHT22;30487;48.716;9.272;2023-11-22T08:29:44;5.70;99.90
44767;DHT22;30487;48.716;9.272;2023-11-22T08:32:12;5.60;99.90
44767;DHT22;30487;48.716;9.272;2023-11-22T08:34:38;5.50;99.90
44767;DHT22;30487;48.716;9.272;2023-11-22T08:37:04;5.50;99.90
44767;DHT22;30487;48.716;9.272;2023-11-22T08:39:29;5.50;99.90
44767;DHT22;30487;48.716;9.272;2023-11-22T08:41:55;5.50;99.90
44767;DHT22;30487;48.716;9.272;2023-11-22T08:44:20;5.50;99.90
44767;DHT22;30487;48.716;9.272;2023-11-22T08:46:46;5.50;99.90
44767;DHT22;30487;48.716;9.272;2023-11-22T08:49:12;5.50;99.90
44767;DHT22;30487;48.716;9.272;2023-11-22T08:51:38;5.50;99.90
44767;DHT22;30487;48.716;9.272;2023-11-22T08:54:04;5.50;99.90
44767;DHT22;30487;48.716;9.272;2023-11-22T08:56:29;5.50;99.90
44767;DHT22;30487;48.716;9.272;2023-11-22T08:58:55;5.50;99.90
44767;DHT22;30487;48.716;9.272;2023-11-22T09:01:21;5.50;99.90
44767;DHT22;30487;48.716;9.272;2023-11-22T09:03:47;5.50;99.90
44767;DHT22;30487;48.716;9.272;2023-11-22T09:06:12;5.40;99.90
44767;DHT22;30487;48.716;9.272;2023-11-22T09:08:38;5.40;99.90
44767;DHT22;30487;48.716;9.272;2023-11-22T09:11:04;5.50;99.90
44767;DHT22;30487;48.716;9.272;2023-11-22T09:13:32;5.40;99.90
44767;DHT22;30487;48.716;9.272;2023-11-22T09:15:58;5.50;99.90
44767;DHT22;30487;48.716;9.272;2023-11-22T09:18:23;5.50;99.90
44767;DHT22;30487;48.716;9.272;2023-11-22T09:20:49;5.50;99.90
44767;DHT22;30487;48.716;9.272;2023-11-22T09:23:14;5.50;99.90
44767;DHT22;30487;48.716;9.272;2023-11-22T09:25:40;5.50;99.90
44767;DHT22;30487;48.716;9.272;2023-11-22T09:28:06;5.50;99.90
44767;DHT22;30487;48.716;9.272;2023-11-22T09:30:33;5.50;99.90
44767;DHT22;30487;48.716;9.272;2023-11-22T09:33:16;5.50;99.90
44767;DHT22;30487;48.716;9.272;2023-11-22T09:35:43;5.50;99.90
44767;DHT22;30487;48.716;9.272;2023-11-22T09:38:10;5.50;99.90
44767;DHT22;30487;48.716;9.272;2023-11-22T09:40:48;5.50;99.90
44767;DHT22;30487;48.716;9.272;2023-11-22T09:43:15;5.50;99.90
44767;DHT22;30487;48.716;9.272;2023-11-22T09:45:48;5.60;99.90
44767;DHT22;30487;48.716;9.272;2023-11-22T09:48:18;5.70;99.90
44767;DHT22;30487;48.716;9.272;2023-11-22T09:50:56;5.70;99.90
44767;DHT22;30487;48.716;9.272;2023-11-22T09:53:29;5.80;99.90
44767;DHT22;30487;48.716;9.272;2023-11-22T09:55:56;5.80;99.90
44767;DHT22;30487;48.716;9.272;2023-11-22T09:58:21;5.80;99.90
44767;DHT22;30487;48.716;9.272;2023-11-22T10:00:47;5.90;99.90
44767;DHT22;30487;48.716;9.272;2023-11-22T10:03:13;5.90;99.90
44767;DHT22;30487;48.716;9.272;2023-11-22T10:05:42;5.90;99.90
44767;DHT22;30487;48.716;9.272;2023-11-22T10:08:08;5.80;99.90
44767;DHT22;30487;48.716;9.272;2023-11-22T10:10:36;5.90;99.90
44767;DHT22;30487;48.716;9.272;2023-11-22T10:13:02;5.80;99.90
44767;DHT22;30487;48.716;9.272;2023-11-22T10:15:29;5.80;99.90
44767;DHT22;30487;48.716;9.272;2023-11-22T10:17:59;5.90;99.90
44767;DHT22;30487;48.716;9.272;2023-11-22T10:20:42;5.90;99.90
44767;DHT22;30487;48.716;9.272;2023-11-22T10:23:12;5.90;99.90
44767;DHT22;30487;48.716;9.272;2023-11-22T10:28:13;5.90;99.90
44767;DHT22;30487;48.716;9.272;2023-11-22T10:30:38;5.90;99.90
44767;DHT22;30487;48.716;9.272;2023-11-22T10:33:06;6.00;99.90
44767;DHT22;30487;48.716;9.272;2023-11-22T10:35:32;6.00;99.90
44767;DHT22;30487;48.716;9.272;2023-11-22T10:37:59;6.00;99.90
44767;DHT22;30487;48.716;9.272;2023-11-22T10:40:28;5.90;99.90
44767;DHT22;30487;48.716;9.272;2023-11-22T10:42:56;5.90;99.90
44767;DHT22;30487;48.716;9.272;2023-11-22T10:45:21;6.00;99.90
44767;DHT22;30487;48.716;9.272;2023-11-22T10:47:49;6.00;99.90
44767;DHT22;30487;48.716;9.272;2023-11-22T10:50:17;6.10;99.90
44767;DHT22;30487;48.716;9.272;2023-11-22T10:52:45;6.10;99.90
44767;DHT22;30487;48.716;9.272;2023-11-22T10:55:15;6.10;99.90
44767;DHT22;30487;48.716;9.272;2023-11-22T10:57:45;6.10;99.90
44767;DHT22;30487;48.716;9.272;2023-11-22T11:00:16;6.00;99.90
44767;DHT22;30487;48.716;9.272;2023-11-22T11:02:45;6.00;99.90
44767;DHT22;30487;48.716;9.272;2023-11-22T11:05:16;6.00;99.90
44767;DHT22;30487;48.716;9.272;2023-11-22T11:07:49;6.00;99.90
44767;DHT22;30487;48.716;9.272;2023-11-22T11:10:20;6.00;99.90
44767;DHT22;30487;48.716;9.272;2023-11-22T11:12:47;6.00;99.90
44767;DHT22;30487;48.716;9.272;2023-11-22T11:15:14;6.00;99.90
44767;DHT22;30487;48.716;9.272;2023-11-22T11:17:40;5.90;99.90
44767;DHT22;30487;48.716;9.272;2023-11-22T11:20:06;6.00;99.90
44767;DHT22;30487;48.716;9.272;2023-11-22T11:22:33;6.00;99.90
44767;DHT22;30487;48.716;9.272;2023-11-22T11:25:05;6.10;99.90
44767;DHT22;30487;48.716;9.272;2023-11-22T11:27:34;6.10;99.90
44767;DHT22;30487;48.716;9.272;2023-11-22T11:32:57;6.00;99.90
44767;DHT22;30487;48.716;9.272;2023-11-22T11:35:42;6.00;99.90
44767;DHT22;30487;48.716;9.272;2023-11-22T11:38:12;6.00;99.90
44767;DHT22;30487;48.716;9.272;2023-11-22T11:40:45;5.90;99.90
44767;DHT22;30487;48.716;9.272;2023-11-22T11:43:11;5.80;99.90
44767;DHT22;30487;48.716;9.272;2023-11-22T11:45:42;5.80;99.90
44767;DHT22;30487;48.716;9.272;2023-11-22T11:48:16;5.80;99.90
44767;DHT22;30487;48.716;9.272;2023-11-22T11:50:42;5.80;99.90
44767;DHT22;30487;48.716;9.272;2023-11-22T11:53:11;5.80;99.90
44767;DHT22;30487;48.716;9.272;2023-11-22T11:55:38;5.70;99.90
44767;DHT22;30487;48.716;9.272;2023-11-22T11:58:07;5.60;99.90
44767;DHT22;30487;48.716;9.272;2023-11-22T12:00:35;5.60;99.90
44767;DHT22;30487;48.716;9.272;2023-11-22T12:03:02;5.60;99.90
44767;DHT22;30487;48.716;9.272;2023-11-22T12:05:29;5.60;99.90
44767;DHT22;30487;48.716;9.272;2023-11-22T12:07:54;5.60;99.90
44767;DHT22;30487;48.716;9.272;2023-11-22T12:10:20;5.50;99.90
44767;DHT22;30487;48.716;9.272;2023-11-22T12:12:47;5.50;99.90
44767;DHT22;30487;48.716;9.272;2023-11-22T12:15:12;5.40;99.90
44767;DHT22;30487;48.716;9.272;2023-11-22T12:17:40;5.40;99.90
44767;DHT22;30487;48.716;9.272;2023-11-22T12:20:13;5.40;99.90
44767;DHT22;30487;48.716;9.272;2023-11-22T12:22:41;5.40;99.90
44767;DHT22;30487;48.716;9.272;2023-11-22T12:25:07;5.40;99.90
44767;DHT22;30487;48.716;9.272;2023-11-22T12:27:33;5.40;99.90
44767;DHT22;30487;48.716;9.272;2023-11-22T12:29:58;5.40;99.90
44767;DHT22;30487;48.716;9.272;2023-11-22T12:32:25;5.40;99.90
44767;DHT22;30487;48.716;9.272;2023-11-22T12:34:51;5.40;99.90
44767;DHT22;30487;48.716;9.272;2023-11-22T12:37:20;5.30;99.90
44767;DHT22;30487;48.716;9.272;2023-11-22T12:39:47;5.30;99.90
44767;DHT22;30487;48.716;9.272;2023-11-22T12:42:13;5.30;99.90
44767;DHT22;30487;48.716;9.272;2023-11-22T12:44:52;5.30;99.90
44767;DHT22;30487;48.716;9.272;2023-11-22T12:47:33;5.30;99.90
44767;DHT22;30487;48.716;9.272;2023-11-22T12:50:03;5.30;99.90
44767;DHT22;30487;48.716;9.272;2023-11-22T12:52:32;5.30;99.90
44767;DHT22;30487;48.716;9.272;2023-11-22T12:54:58;5.30;99.90
44767;DHT22;30487;48.716;9.272;2023-11-22T12:57:24;5.30;99.90
44767;DHT22;30487;48.716;9.272;2023-11-22T12:59:50;5.30;99.90
44767;DHT22;30487;48.716;9.272;2023-11-22T13:02:16;5.30;99.90
44767;DHT22;30487;48.716;9.272;2023-11-22T13:04:43;5.30;99.90
44767;DHT22;30487;48.716;9.272;2023-11-22T13:07:11;5.20;99.90
44767;DHT22;30487;48.716;9.272;2023-11-22T13:09:36;5.30;99.90
44767;DHT22;30487;48.716;9.272;2023-11-22T13:12:02;5.30;99.90
44767;DHT22;30487;48.716;9.272;2023-11-22T13:14:29;5.30;99.90
44767;DHT22;30487;48.716;9.272;2023-11-22T13:17:03;5.30;99.90
44767;DHT22;30487;48.716;9.272;2023-11-22T13:19:29;5.30;99.90
44767;DHT22;30487;48.716;9.272;2023-11-22T13:21:55;5.20;99.90
44767;DHT22;30487;48.716;9.272;2023-11-22T13:24:21;5.20;99.90
44767;DHT22;30487;48.716;9.272;2023-11-22T13:26:46;5.20;99.90
44767;DHT22;30487;48.716;9.272;2023-11-22T13:29:12;5.20;99.90
44767;DHT22;30487;48.716;9.272;2023-11-22T13:31:37;5.10;99.90
44767;DHT22;30487;48.716;9.272;2023-11-22T13:34:03;5.20;99.90
44767;DHT22;30487;48.716;9.272;2023-11-22T13:36:28;5.20;99.90
44767;DHT22;30487;48.716;9.272;2023-11-22T13:38:54;5.20;99.90
44767;DHT22;30487;48.716;9.272;2023-11-22T13:41:20;5.20;99.90
44767;DHT22;30487;48.716;9.272;2023-11-22T13:43:47;5.20;99.90
44767;DHT22;30487;48.716;9.272;2023-11-22T13:46:14;5.10;99.90
44767;DHT22;30487;48.716;9.272;2023-11-22T13:48:40;5.10;99.90
44767;DHT22;30487;48.716;9.272;2023-11-22T13:51:07;5.20;99.90
44767;DHT22;30487;48.716;9.272;2023-11-22T13:53:33;5.20;99.90
44767;DHT22;30487;48.716;9.272;2023-11-22T13:56:02;5.20;99.90
44767;DHT22;30487;48.716;9.272;2023-11-22T13:58:33;5.20;99.90
44767;DHT22;30487;48.716;9.272;2023-11-22T14:00:59;5.10;99.90
44767;DHT22;30487;48.716;9.272;2023-11-22T14:03:24;5.10;99.90
44767;DHT22;30487;48.716;9.272;2023-11-22T14:05:50;5.10;99.90
44767;DHT22;30487;48.716;9.272;2023-11-22T14:08:15;5.10;99.90
44767;DHT22;30487;48.716;9.272;2023-11-22T14:10:41;5.10;99.90
44767;DHT22;30487;48.716;9.272;2023-11-22T14:13:07;5.10;99.90
44767;DHT22;30487;48.716;9.272;2023-11-22T14:15:34;5.20;99.90
44767;DHT22;30487;48.716;9.272;2023-11-22T14:17:59;5.20;99.90
44767;DHT22;30487;48.716;9.272;2023-11-22T14:20:25;5.20;99.90
44767;DHT22;30487;48.716;9.272;2023-11-22T14:22:51;5.20;99.90
44767;DHT22;30487;48.716;9.272;2023-11-22T14:25:17;5.10;99.90
44767;DHT22;30487;48.716;9.272;2023-11-22T14:27:45;5.20;99.90
44767;DHT22;30487;48.716;9.272;2023-11-22T14:30:12;5.10;99.90
44767;DHT22;30487;48.716;9.272;2023-11-22T14:32:42;5.10;99.90
44767;DHT22;30487;48.716;9.272;2023-11-22T14:35:09;5.10;99.90
44767;DHT22;30487;48.716;9.272;2023-11-22T14:37:35;5.10;99.90
44767;DHT22;30487;48.716;9.272;2023-11-22T14:40:01;5.10;99.90
44767;DHT22;30487;48.716;9.272;2023-11-22T14:42:30;5.10;99.90
44767;DHT22;30487;48.716;9.272;2023-11-22T14:44:56;5.00;99.90
44767;DHT22;30487;48.716;9.272;2023-11-22T14:47:22;5.00;99.90
44767;DHT22;30487;48.716;9.272;2023-11-22T14:49:52;5.00;99.90
44767;DHT22;30487;48.716;9.272;2023-11-22T14:52:18;5.00;99.90
44767;DHT22;30487;48.716;9.272;2023-11-22T14:54:45;5.00;99.90
44767;DHT22;30487;48.716;9.272;2023-11-22T14:57:11;5.00;99.90
44767;DHT22;30487;48.716;9.272;2023-11-22T14:59:41;5.00;99.90
44767;DHT22;30487;48.716;9.272;2023-11-22T15:02:08;5.00;99.90
44767;DHT22;30487;48.716;9.272;2023-11-22T15:04:35;5.00;99.90
44767;DHT22;30487;48.716;9.272;2023-11-22T15:07:03;5.00;99.90
44767;DHT22;30487;48.716;9.272;2023-11-22T15:09:29;4.90;99.90
44767;DHT22;30487;48.716;9.272;2023-11-22T15:11:58;4.90;99.90
44767;DHT22;30487;48.716;9.272;2023-11-22T15:14:24;4.90;99.90
44767;DHT22;30487;48.716;9.272;2023-11-22T15:16:51;4.90;99.90
44767;DHT22;30487;48.716;9.272;2023-11-22T15:19:17;4.90;99.90
44767;DHT22;30487;48.716;9.272;2023-11-22T15:21:43;4.90;99.90
44767;DHT22;30487;48.716;9.272;2023-11-22T15:24:09;4.80;99.90
44767;DHT22;30487;48.716;9.272;2023-11-22T15:26:35;4.80;99.90
44767;DHT22;30487;48.716;9.272;2023-11-22T15:29:00;4.80;99.90
44767;DHT22;30487;48.716;9.272;2023-11-22T15:31:26;4.90;99.90
44767;DHT22;30487;48.716;9.272;2023-11-22T15:33:53;4.90;99.90
44767;DHT22;30487;48.716;9.272;2023-11-22T15:36:18;4.80;99.90
44767;DHT22;30487;48.716;9.272;2023-11-22T15:38:44;4.80;99.90
44767;DHT22;30487;48.716;9.272;2023-11-22T15:41:10;4.80;99.90
44767;DHT22;30487;48.716;9.272;2023-11-22T15:43:36;4.80;99.90
44767;DHT22;30487;48.716;9.272;2023-11-22T15:46:01;4.80;99.90
44767;DHT22;30487;48.716;9.272;2023-11-22T15:48:27;4.80;99.90